Terminal Aerodrome Forecast
Issued by NWS Buffalo, NY

Home | Current Version | Previous Version | Text Only | Print | Product List | Glossary On
Versions: 1 2 3 4 5 6 7 8 9 10 11 12 13 14 15 16 17 18 19 20 21 22 23 24 25 26 27 28 29 30
000
FTUS41 KBUF 312300
TAFBUF
TAF
KBUF 312331Z 0100/0124 23010KT P6SM SKC
     FM010300 19006KT P6SM FEW250
     FM011400 23010KT P6SM FEW250
     FM011700 24012G18KT P6SM SCT250=

USA.gov is the U.S. government's official web portal to all federal, state and local government web resources and services.